Time;durP1;ratioP1;P1;durP2;ratioP2;P2;SDS_P1;SDS_P2;PMS_P1;PMS_P2;Temp;Humidity;BMP_temperature;BMP_pressure;BME280_temperature;BME280_humidity;BME280_pressure;Samples;Min_cycle;Max_cycle;Signal;HPM_P1;HPM_P2
2022/11/25 00:01:52;;;;;;;21.80;11.82;;;3.80;41.60;;;;;;7356569;19;20788;-70
2022/11/25 00:04:22;;;;;;;19.02;12.60;;;3.90;41.40;;;;;;7362094;19;20006;-71
2022/11/25 00:06:52;;;;;;;26.83;13.45;;;3.90;41.00;;;;;;7360387;19;20640;-70
2022/11/25 00:09:24;;;;;;;27.35;12.88;;;3.90;40.40;;;;;;7381665;19;20022;-71
2022/11/25 00:11:54;;;;;;;28.30;13.07;;;3.90;39.70;;;;;;7356660;19;20030;-70
2022/11/25 00:14:24;;;;;;;21.58;12.90;;;3.80;39.00;;;;;;7363453;19;20093;-70
2022/11/25 00:16:54;;;;;;;25.48;12.63;;;3.80;38.90;;;;;;7359769;19;20011;-70
2022/11/25 00:19:24;;;;;;;25.65;12.82;;;3.70;38.60;;;;;;7359314;19;20105;-69
2022/11/25 00:21:53;;;;;;;17.73;11.73;;;3.70;39.20;;;;;;7357108;19;20010;-70
2022/11/25 00:24:26;;;;;;;25.35;13.25;;;3.80;39.00;;;;;;7383782;19;20018;-70
2022/11/25 00:26:56;;;;;;;22.45;13.25;;;3.70;39.10;;;;;;7358533;19;20202;-70
2022/11/25 00:29:26;;;;;;;25.33;12.52;;;3.70;38.80;;;;;;7360173;19;20014;-70
2022/11/25 00:31:55;;;;;;;16.83;11.63;;;3.60;38.90;;;;;;7357069;19;20471;-70
2022/11/25 00:34:25;;;;;;;24.33;13.80;;;3.50;38.60;;;;;;7361957;19;20011;-71
2022/11/25 00:36:55;;;;;;;30.15;13.38;;;3.50;38.80;;;;;;7359816;19;20017;-70
2022/11/25 00:39:27;;;;;;;26.15;12.98;;;3.40;39.70;;;;;;7380843;19;20025;-70
2022/11/25 00:44:40;;;;;;;22.77;12.80;;;3.40;40.40;;;;;;7362355;19;20017;-70
2022/11/25 00:47:12;;;;;;;23.90;13.73;;;3.50;40.90;;;;;;7356697;19;20002;-69
2022/11/25 00:49:44;;;;;;;28.92;13.35;;;3.50;41.00;;;;;;7358310;19;20022;-69
2022/11/25 00:52:16;;;;;;;29.75;13.75;;;3.50;41.00;;;;;;7356170;19;20010;-70
2022/11/25 00:54:50;;;;;;;24.30;13.70;;;3.40;40.90;;;;;;7362859;19;20010;-70
2022/11/25 00:57:21;;;;;;;26.58;13.82;;;3.50;41.00;;;;;;7380331;19;20384;-70
2022/11/25 00:59:51;;;;;;;24.63;13.88;;;3.40;40.90;;;;;;7358439;19;20014;-70
2022/11/25 01:02:21;;;;;;;22.52;13.13;;;3.40;41.20;;;;;;7354422;19;20007;-70
2022/11/25 01:04:51;;;;;;;21.15;13.13;;;3.50;41.40;;;;;;7361280;19;20486;-70
2022/11/25 01:07:21;;;;;;;19.88;12.20;;;3.50;41.50;;;;;;7358820;19;20003;-70
2022/11/25 01:09:54;;;;;;;26.88;12.82;;;3.50;41.40;;;;;;7357008;19;20014;-70
2022/11/25 01:12:23;;;;;;;25.15;13.50;;;3.60;41.60;;;;;;7377673;19;20038;-71
2022/11/25 01:14:53;;;;;;;25.67;13.25;;;3.60;41.60;;;;;;7361569;19;20030;-70
2022/11/25 01:17:23;;;;;;;20.35;12.27;;;3.60;42.10;;;;;;7357632;19;20022;-70
2022/11/25 01:19:53;;;;;;;22.20;12.68;;;3.70;42.00;;;;;;7358504;19;20466;-70
2022/11/25 01:22:23;;;;;;;21.67;12.23;;;3.70;42.00;;;;;;7355578;19;20014;-71
2022/11/25 01:24:55;;;;;;;18.67;12.63;;;3.80;41.90;;;;;;7360996;19;20011;-70
2022/11/25 01:27:25;;;;;;;25.05;12.82;;;3.90;42.00;;;;;;7379419;19;20014;-70
2022/11/25 01:29:55;;;;;;;20.42;12.57;;;3.90;41.30;;;;;;7357030;19;20007;-69
2022/11/25 01:32:25;;;;;;;22.58;12.70;;;3.90;40.60;;;;;;7354321;19;20079;-70
2022/11/25 01:34:55;;;;;;;21.65;11.50;;;4.00;39.50;;;;;;7361312;19;20094;-70
2022/11/25 01:37:24;;;;;;;20.45;11.52;;;4.00;37.50;;;;;;7358159;19;20363;-69
2022/11/25 01:39:57;;;;;;;23.73;11.32;;;4.10;37.30;;;;;;7356770;19;20017;-70
2022/11/25 01:42:30;;;;;;;17.10;10.05;;;4.10;37.30;;;;;;7376614;19;20017;-70
2022/11/25 01:45:33;;;;;;;23.75;10.90;;;4.00;36.30;;;;;;7360315;19;20086;-70
2022/11/25 01:48:12;;;;;;;17.77;10.77;;;4.00;36.40;;;;;;7356361;19;20687;-71
2022/11/25 01:50:43;;;;;;;20.13;10.88;;;4.00;36.20;;;;;;7356374;19;20014;-69
2022/11/25 01:53:15;;;;;;;19.42;9.80;;;4.10;36.20;;;;;;7359530;19;20058;-71
2022/11/25 01:55:54;;;;;;;21.65;11.05;;;4.10;35.50;;;;;;7361001;19;20489;-69
2022/11/25 01:58:29;;;;;;;20.67;10.10;;;4.10;35.30;;;;;;7362731;19;20535;-71
2022/11/25 02:00:58;;;;;;;21.02;11.05;;;4.10;35.60;;;;;;7361700;19;20717;-70
2022/11/25 02:03:34;;;;;;;18.27;11.43;;;4.10;35.40;;;;;;7388629;19;20470;-70
2022/11/25 02:06:09;;;;;;;16.63;10.80;;;4.10;35.10;;;;;;7368023;19;20013;-69
2022/11/25 02:08:40;;;;;;;18.67;11.10;;;4.00;34.70;;;;;;7366425;19;20366;-69
2022/11/25 02:11:12;;;;;;;20.38;11.23;;;4.00;35.10;;;;;;7360838;19;20015;-70
2022/11/25 02:13:43;;;;;;;18.67;9.93;;;4.00;34.80;;;;;;7368610;19;20010;-68
2022/11/25 02:16:13;;;;;;;16.85;10.52;;;4.00;35.20;;;;;;7367719;19;20018;-65
2022/11/25 02:18:43;;;;;;;20.70;10.70;;;4.10;35.80;;;;;;7376076;19;20022;-70
2022/11/25 02:21:15;;;;;;;19.88;10.82;;;4.00;35.40;;;;;;7380649;19;20103;-69
2022/11/25 02:23:53;;;;;;;21.75;10.80;;;4.00;35.00;;;;;;7364777;19;20015;-70
2022/11/25 02:26:26;;;;;;;21.38;10.38;;;4.00;35.40;;;;;;7368918;19;20010;-69
2022/11/25 02:28:56;;;;;;;19.92;11.13;;;4.00;35.40;;;;;;7365416;19;20014;-68
2022/11/25 02:31:26;;;;;;;21.73;10.93;;;4.10;35.30;;;;;;7359367;19;21237;-69
2022/11/25 02:33:56;;;;;;;21.30;10.23;;;4.10;35.00;;;;;;7367783;19;20030;-70
2022/11/25 02:36:26;;;;;;;17.42;10.20;;;4.10;35.00;;;;;;7390155;19;20016;-70
2022/11/25 02:38:59;;;;;;;17.83;10.27;;;4.00;34.70;;;;;;7365591;19;20007;-65
2022/11/25 02:41:34;;;;;;;19.92;10.10;;;4.00;35.40;;;;;;7358381;19;20006;-71
2022/11/25 02:44:04;;;;;;;18.67;9.77;;;4.00;35.50;;;;;;7366147;19;20014;-71
2022/11/25 02:46:34;;;;;;;17.77;10.32;;;4.00;35.50;;;;;;7366647;19;20010;-71
2022/11/25 02:49:05;;;;;;;16.90;10.02;;;4.00;35.80;;;;;;7365528;19;20039;-70
2022/11/25 02:51:42;;;;;;;16.00;10.48;;;4.00;35.30;;;;;;7381912;19;20486;-70
2022/11/25 02:54:13;;;;;;;21.08;10.25;;;4.00;35.30;;;;;;7365828;19;20018;-70
2022/11/25 02:56:46;;;;;;;19.63;9.80;;;4.00;35.70;;;;;;7365546;19;20021;-69
2022/11/25 02:59:15;;;;;;;19.20;9.57;;;3.90;35.80;;;;;;7362667;19;20054;-70
2022/11/25 03:01:45;;;;;;;20.60;10.25;;;3.90;35.90;;;;;;7361810;19;20006;-70
2022/11/25 03:04:15;;;;;;;18.80;9.73;;;3.80;35.90;;;;;;7365657;19;20015;-71
2022/11/25 03:06:46;;;;;;;18.00;10.32;;;3.80;36.20;;;;;;7366679;19;20042;-70
2022/11/25 03:09:15;;;;;;;18.90;9.70;;;3.80;36.40;;;;;;7381137;19;20018;-69
2022/11/25 03:14:30;;;;;;;;;;;3.70;36.90;;;;;;7365053;19;20074;-70
2022/11/25 03:17:00;;;;;;;15.00;9.45;;;3.70;37.00;;;;;;7363418;19;19907;-71
2022/11/25 03:19:30;;;;;;;15.82;9.95;;;3.70;36.90;;;;;;7359146;19;20006;-70
2022/11/25 03:22:00;;;;;;;13.30;8.90;;;3.70;37.00;;;;;;7358043;19;20006;-71
2022/11/25 03:24:30;;;;;;;17.02;9.45;;;3.80;37.10;;;;;;7385829;19;20018;-69
2022/11/25 03:27:02;;;;;;;19.63;10.02;;;3.80;37.10;;;;;;7364185;19;20006;-70
2022/11/25 03:29:32;;;;;;;19.55;10.27;;;3.80;37.00;;;;;;7360431;19;20017;-70
2022/11/25 03:32:02;;;;;;;14.40;9.75;;;3.90;37.10;;;;;;7364519;19;20010;-68
2022/11/25 03:34:38;;;;;;;14.57;9.23;;;3.90;37.10;;;;;;7368642;19;20038;-69
2022/11/25 03:37:08;;;;;;;19.40;9.90;;;3.90;37.10;;;;;;7365012;19;20014;-69
2022/11/25 03:39:38;;;;;;;20.20;10.50;;;3.90;37.10;;;;;;7379640;19;20010;-70
2022/11/25 03:42:10;;;;;;;20.65;9.80;;;3.90;37.00;;;;;;7359963;19;20339;-70
2022/11/25 03:44:40;;;;;;;19.58;10.35;;;4.00;36.50;;;;;;7362504;19;20139;-70
2022/11/25 03:47:10;;;;;;;16.27;10.27;;;4.00;35.90;;;;;;7363978;19;20007;-70
2022/11/25 03:49:40;;;;;;;20.02;10.20;;;4.00;35.30;;;;;;7358679;19;20002;-70
2022/11/25 03:52:09;;;;;;;16.88;9.50;;;3.90;34.90;;;;;;7360315;19;20006;-70
2022/11/25 03:54:39;;;;;;;15.40;9.55;;;4.00;34.40;;;;;;7386915;19;20007;-70
2022/11/25 03:57:12;;;;;;;20.15;9.95;;;3.90;34.00;;;;;;7363700;19;20021;-70
2022/11/25 03:59:42;;;;;;;18.13;9.77;;;3.90;33.80;;;;;;7356537;19;20017;-70
2022/11/25 04:02:13;;;;;;;18.63;9.82;;;3.90;34.00;;;;;;7359039;19;20086;-70
2022/11/25 04:04:43;;;;;;;14.52;8.93;;;3.90;33.80;;;;;;7363638;19;20038;-70
2022/11/25 04:07:12;;;;;;;14.38;8.90;;;3.90;34.10;;;;;;7363540;19;20713;-70
2022/11/25 04:09:42;;;;;;;16.20;9.00;;;3.80;34.10;;;;;;7373150;19;20362;-69
2022/11/25 04:14:57;;;;;;;;;;;3.70;34.20;;;;;;7363085;19;20034;-70
2022/11/25 04:17:27;;;;;;;16.92;9.35;;;3.70;34.80;;;;;;7361835;19;19917;-69
2022/11/25 04:19:57;;;;;;;14.13;9.10;;;3.60;35.10;;;;;;7356585;19;20006;-70
2022/11/25 04:22:26;;;;;;;16.63;10.35;;;3.60;35.60;;;;;;7358395;19;20517;-70
2022/11/25 04:24:56;;;;;;;13.50;9.90;;;3.60;35.80;;;;;;7361811;19;20163;-70
2022/11/25 04:27:29;;;;;;;14.90;9.90;;;3.60;35.50;;;;;;7385234;19;20082;-70
2022/11/25 04:29:59;;;;;;;16.33;10.35;;;3.60;36.50;;;;;;7354786;19;20478;-70
2022/11/25 04:32:28;;;;;;;17.42;10.68;;;3.60;36.10;;;;;;7358449;19;20011;-69
2022/11/25 04:34:58;;;;;;;16.55;10.05;;;3.60;36.50;;;;;;7363669;19;20514;-70
2022/11/25 04:37:28;;;;;;;19.67;10.85;;;3.60;36.90;;;;;;7362847;19;20081;-70
2022/11/25 04:39:58;;;;;;;19.83;11.75;;;3.60;36.90;;;;;;7355387;19;20010;-70
2022/11/25 04:42:35;;;;;;;15.85;10.68;;;3.70;37.00;;;;;;7379820;19;20012;-70
2022/11/25 04:45:07;;;;;;;18.15;10.13;;;3.70;36.90;;;;;;7361067;19;20554;-70
2022/11/25 04:47:53;;;;;;;20.30;11.45;;;3.70;36.90;;;;;;7362268;19;20014;-70
2022/11/25 04:50:24;;;;;;;20.23;10.95;;;3.70;36.40;;;;;;7353112;19;20863;-69
2022/11/25 04:52:54;;;;;;;18.45;11.05;;;3.80;35.90;;;;;;7360591;19;20785;-69
2022/11/25 04:55:24;;;;;;;20.13;11.20;;;3.80;35.40;;;;;;7361433;19;20026;-70
2022/11/25 04:57:57;;;;;;;22.92;11.23;;;3.80;35.40;;;;;;7362319;19;20010;-70
2022/11/25 05:00:24;;;;;;;18.73;10.15;;;3.80;35.00;;;;;;7373941;19;20010;-70
2022/11/25 05:02:54;;;;;;;19.50;10.10;;;3.80;34.70;;;;;;7360041;19;20102;-70
2022/11/25 05:05:24;;;;;;;18.45;10.52;;;3.80;34.50;;;;;;7361173;19;20006;-70
2022/11/25 05:07:54;;;;;;;17.65;10.90;;;3.80;34.60;;;;;;7361842;19;20020;-70
2022/11/25 05:10:24;;;;;;;17.90;10.40;;;3.80;34.40;;;;;;7350579;19;20527;-70
2022/11/25 05:12:56;;;;;;;17.65;10.57;;;3.80;34.40;;;;;;7359073;19;20033;-70
2022/11/25 05:15:26;;;;;;;23.80;11.38;;;3.80;34.50;;;;;;7382988;19;20429;-70
2022/11/25 05:17:56;;;;;;;20.00;12.30;;;3.80;34.00;;;;;;7361672;19;20390;-70
2022/11/25 05:20:26;;;;;;;21.65;12.10;;;3.90;33.90;;;;;;7351057;19;20009;-70
2022/11/25 05:22:55;;;;;;;17.08;12.07;;;3.80;33.00;;;;;;7359226;19;20014;-70
2022/11/25 05:25:26;;;;;;;18.15;11.68;;;3.80;32.90;;;;;;7359898;19;20028;-70
2022/11/25 05:27:58;;;;;;;14.45;10.40;;;3.80;33.20;;;;;;7362133;19;20043;-70
2022/11/25 05:30:28;;;;;;;22.83;11.40;;;3.80;33.60;;;;;;7373597;19;20014;-70
2022/11/25 05:32:58;;;;;;;16.88;11.40;;;3.90;33.00;;;;;;7361510;19;20093;-70
2022/11/25 05:35:28;;;;;;;19.10;11.70;;;3.90;32.70;;;;;;7368728;19;20014;-70
2022/11/25 05:37:59;;;;;;;20.48;10.63;;;3.90;32.60;;;;;;7367778;19;20007;-70
2022/11/25 05:40:29;;;;;;;18.88;10.63;;;3.90;32.90;;;;;;7358807;19;20030;-70
2022/11/25 05:43:05;;;;;;;20.05;10.77;;;3.80;32.80;;;;;;7365700;19;20056;-70
2022/11/25 05:45:34;;;;;;;15.90;11.57;;;3.80;32.90;;;;;;7387795;19;20470;-70
2022/11/25 05:48:04;;;;;;;28.42;11.10;;;3.80;33.60;;;;;;7367686;19;20078;-70
2022/11/25 05:50:34;;;;;;;20.58;11.38;;;3.80;33.80;;;;;;7357928;19;20017;-70
2022/11/25 05:53:04;;;;;;;22.13;11.80;;;3.70;33.70;;;;;;7364593;19;20017;-70
2022/11/25 05:55:34;;;;;;;22.15;11.38;;;3.70;34.10;;;;;;7367720;19;20018;-69
2022/11/25 05:58:07;;;;;;;18.48;10.88;;;3.70;34.10;;;;;;7367183;19;19999;-70
2022/11/25 06:00:37;;;;;;;21.10;11.35;;;3.60;34.60;;;;;;7380603;19;20014;-70
2022/11/25 06:03:07;;;;;;;21.80;11.90;;;3.60;34.80;;;;;;7365177;19;20002;-70
2022/11/25 06:05:37;;;;;;;20.92;11.35;;;3.60;34.80;;;;;;7366033;19;20454;-70
2022/11/25 06:08:07;;;;;;;17.20;11.10;;;3.50;34.90;;;;;;7366259;19;20007;-71
2022/11/25 06:10:39;;;;;;;19.02;11.60;;;3.60;35.70;;;;;;7355848;19;20787;-70
2022/11/25 06:13:11;;;;;;;17.52;11.98;;;3.60;35.80;;;;;;7364340;19;20011;-70
2022/11/25 06:15:43;;;;;;;20.02;11.45;;;3.50;35.80;;;;;;7389263;19;20015;-70
2022/11/25 06:18:14;;;;;;;22.02;11.45;;;3.50;35.60;;;;;;7366313;19;20052;-69
2022/11/25 06:20:44;;;;;;;17.27;11.40;;;3.40;35.80;;;;;;7357125;19;20701;-70
2022/11/25 06:23:14;;;;;;;20.08;11.85;;;3.40;36.80;;;;;;7363832;19;20017;-70
2022/11/25 06:25:44;;;;;;;21.85;11.50;;;3.40;36.60;;;;;;7364537;19;20601;-69
2022/11/25 06:28:17;;;;;;;23.23;12.07;;;3.40;36.70;;;;;;7364679;19;20015;-70
2022/11/25 06:30:46;;;;;;;19.30;11.68;;;3.30;36.60;;;;;;7359048;19;20017;-70
2022/11/25 06:33:16;;;;;;;22.23;12.20;;;3.30;36.60;;;;;;7385529;19;20014;-70
2022/11/25 06:35:46;;;;;;;20.65;11.48;;;3.40;36.90;;;;;;7364703;19;20015;-70
2022/11/25 06:38:16;;;;;;;18.85;11.95;;;3.40;36.70;;;;;;7364847;19;20474;-69
2022/11/25 06:40:46;;;;;;;20.58;11.70;;;3.40;36.70;;;;;;7357212;19;20030;-70
2022/11/25 06:43:18;;;;;;;19.67;11.40;;;3.40;36.80;;;;;;7362828;19;20066;-70
2022/11/25 06:45:48;;;;;;;20.13;12.82;;;3.30;36.60;;;;;;7361926;19;20022;-70
2022/11/25 06:48:18;;;;;;;18.85;12.02;;;3.30;36.70;;;;;;7386118;19;20018;-70
2022/11/25 06:50:56;;;;;;;21.77;11.93;;;3.40;36.80;;;;;;7355938;19;21222;-69
2022/11/25 06:53:26;;;;;;;21.45;12.80;;;3.40;36.70;;;;;;7363708;19;20026;-69
2022/11/25 06:56:11;;;;;;;18.08;12.07;;;3.40;36.80;;;;;;7363818;19;20231;-70
2022/11/25 06:58:44;;;;;;;23.05;12.85;;;3.40;37.50;;;;;;7362635;19;20415;-70
2022/11/25 07:01:16;;;;;;;23.88;12.80;;;3.50;36.90;;;;;;7356903;19;20030;-70
2022/11/25 07:03:48;;;;;;;17.73;11.85;;;3.50;36.80;;;;;;7364930;19;20015;-70
2022/11/25 07:06:19;;;;;;;26.42;12.68;;;3.50;36.10;;;;;;7384355;19;20010;-70
2022/11/25 07:08:50;;;;;;;21.58;12.63;;;3.50;35.80;;;;;;7362741;19;20010;-70
2022/11/25 07:11:23;;;;;;;24.33;12.45;;;3.60;35.60;;;;;;7354908;19;20010;-70
2022/11/25 07:13:58;;;;;;;20.05;11.95;;;3.70;35.00;;;;;;7364507;19;20898;-70
2022/11/25 07:16:29;;;;;;;20.98;11.77;;;3.70;34.20;;;;;;7364970;19;20529;-70
2022/11/25 07:19:01;;;;;;;18.25;10.93;;;3.80;33.60;;;;;;7363057;19;20024;-70
2022/11/25 07:21:32;;;;;;;23.70;12.05;;;3.80;33.10;;;;;;7377337;19;20010;-70
2022/11/25 07:24:04;;;;;;;20.60;11.05;;;3.90;32.90;;;;;;7363265;19;20377;-70
2022/11/25 07:26:36;;;;;;;18.17;10.77;;;3.90;32.50;;;;;;7361990;19;20775;-70
2022/11/25 07:29:10;;;;;;;18.80;11.20;;;4.00;32.00;;;;;;7362439;19;20006;-69
2022/11/25 07:32:00;;;;;;;22.75;11.27;;;4.10;31.70;;;;;;7354668;19;20441;-69
2022/11/25 07:34:38;;;;;;;21.30;10.73;;;4.20;30.00;;;;;;7364271;19;20017;-70
2022/11/25 07:37:08;;;;;;;18.50;10.40;;;4.30;29.10;;;;;;7362431;19;20066;-70
2022/11/25 07:39:38;;;;;;;20.20;9.85;;;4.40;27.90;;;;;;7381410;19;20020;-69
2022/11/25 07:42:08;;;;;;;15.07;10.40;;;4.40;26.00;;;;;;7356869;19;20014;-70
2022/11/25 07:44:41;;;;;;;16.50;10.23;;;4.40;26.00;;;;;;7363854;19;20006;-70
2022/11/25 07:47:10;;;;;;;16.55;9.60;;;4.50;25.90;;;;;;7362673;19;20497;-69
2022/11/25 07:49:40;;;;;;;16.30;9.23;;;4.50;25.20;;;;;;7359582;19;20667;-70
2022/11/25 07:52:10;;;;;;;20.52;9.50;;;4.70;23.90;;;;;;7357164;19;20011;-70
2022/11/25 07:54:40;;;;;;;22.75;9.70;;;4.70;23.40;;;;;;7384911;19;20014;-70
2022/11/25 07:57:10;;;;;;;17.75;8.77;;;4.70;22.80;;;;;;7362363;19;20702;-70
2022/11/25 07:59:43;;;;;;;19.27;9.65;;;4.80;22.70;;;;;;7358324;19;20801;-69
2022/11/25 08:02:13;;;;;;;14.90;8.70;;;4.80;21.50;;;;;;7356948;19;20041;-70
2022/11/25 08:04:43;;;;;;;17.13;8.30;;;4.80;20.80;;;;;;7363675;19;20073;-70
2022/11/25 08:07:26;;;;;;;15.32;9.35;;;4.90;21.00;;;;;;7361066;19;20038;-69
2022/11/25 08:10:03;;;;;;;18.05;8.95;;;4.90;20.40;;;;;;7357115;19;20007;-71
2022/11/25 08:12:33;;;;;;;18.02;9.15;;;4.80;19.70;;;;;;7379304;19;20065;-71
2022/11/25 08:15:06;;;;;;;19.75;10.10;;;4.90;21.10;;;;;;7362347;19;20081;-70
2022/11/25 08:17:36;;;;;;;15.05;8.68;;;4.90;20.80;;;;;;7363080;19;20042;-70
2022/11/25 08:20:07;;;;;;;19.75;10.25;;;4.80;20.60;;;;;;7355908;19;20019;-70
2022/11/25 08:22:37;;;;;;;22.60;9.60;;;4.90;20.60;;;;;;7357895;19;20010;-70
2022/11/25 08:25:08;;;;;;;20.15;9.32;;;4.90;20.60;;;;;;7362441;19;20025;-70
2022/11/25 08:27:38;;;;;;;18.00;8.50;;;5.00;20.50;;;;;;7383416;19;20026;-69
2022/11/25 08:30:12;;;;;;;23.50;13.35;;;5.00;21.50;;;;;;7356021;19;21280;-70
2022/11/25 08:32:42;;;;;;;19.63;11.60;;;5.10;23.00;;;;;;7359655;19;20027;-70
2022/11/25 08:35:12;;;;;;;17.20;9.52;;;5.30;22.40;;;;;;7360386;19;20025;-72
2022/11/25 08:37:42;;;;;;;14.07;8.77;;;5.30;22.50;;;;;;7362860;19;20431;-69
2022/11/25 08:40:13;;;;;;;16.10;8.75;;;5.20;22.20;;;;;;7354747;19;20014;-69
2022/11/25 08:42:43;;;;;;;11.88;8.25;;;5.30;23.30;;;;;;7372108;19;20034;-71
2022/11/25 08:45:15;;;;;;;18.00;8.80;;;5.30;23.70;;;;;;7382805;19;20021;-70
2022/11/25 08:47:45;;;;;;;19.55;8.73;;;5.30;24.40;;;;;;7360339;19;20078;-70
2022/11/25 08:50:16;;;;;;;20.80;8.93;;;5.40;24.10;;;;;;7352823;19;20006;-69
2022/11/25 08:52:46;;;;;;;15.20;9.05;;;5.30;22.50;;;;;;7358415;19;20469;-69
2022/11/25 08:55:16;;;;;;;17.23;8.98;;;5.40;23.10;;;;;;7362092;19;20014;-69
2022/11/25 08:57:46;;;;;;;13.63;8.60;;;5.30;22.40;;;;;;7359943;19;20081;-70
2022/11/25 09:00:19;;;;;;;13.23;8.63;;;5.40;22.40;;;;;;7373246;19;20025;-70
2022/11/25 09:02:50;;;;;;;16.30;9.13;;;5.40;22.10;;;;;;7358744;19;20011;-71
2022/11/25 09:05:19;;;;;;;15.23;8.82;;;5.50;22.10;;;;;;7360825;19;20034;-70
2022/11/25 09:07:49;;;;;;;14.30;8.77;;;5.60;22.10;;;;;;7361740;19;20015;-70
2022/11/25 09:10:19;;;;;;;13.70;8.82;;;5.70;21.40;;;;;;7358729;19;20548;-71
2022/11/25 09:12:49;;;;;;;14.55;9.23;;;5.90;21.70;;;;;;7365609;19;20121;-71
2022/11/25 09:15:22;;;;;;;15.93;9.38;;;6.00;20.20;;;;;;7390128;19;20017;-71
2022/11/25 09:17:59;;;;;;;17.38;9.50;;;6.20;18.30;;;;;;7368386;19;20011;-71
2022/11/25 09:20:29;;;;;;;17.10;9.57;;;6.30;16.00;;;;;;7357647;19;20006;-71
2022/11/25 09:23:01;;;;;;;16.73;9.32;;;6.80;15.90;;;;;;7366329;19;20010;-70
2022/11/25 09:25:31;;;;;;;15.60;8.23;;;7.10;13.60;;;;;;7367061;19;20464;-70
2022/11/25 09:28:01;;;;;;;14.85;6.85;;;7.30;11.90;;;;;;7366411;19;20047;-70
2022/11/25 09:30:34;;;;;;;15.38;7.82;;;7.30;9.60;;;;;;7380083;19;20051;-70
2022/11/25 09:33:03;;;;;;;16.17;8.05;;;7.30;10.20;;;;;;7363778;19;20010;-70
2022/11/25 09:35:33;;;;;;;13.50;7.72;;;7.40;10.70;;;;;;7366317;19;20010;-70
2022/11/25 09:38:03;;;;;;;17.15;7.53;;;7.50;11.40;;;;;;7366602;19;20358;-71
2022/11/25 09:40:41;;;;;;;13.75;7.10;;;7.40;11.30;;;;;;7357790;19;20568;-70
2022/11/25 09:49:15;;;;;;;18.85;13.18;;;7.40;11.70;;;;;;7365364;19;20106;-70
2022/11/25 09:51:59;;;;;;;13.70;7.90;;;7.30;13.20;;;;;;7357570;19;20647;-71
2022/11/25 09:54:36;;;;;;;16.40;7.90;;;7.30;12.60;;;;;;7385837;19;20505;-70
2022/11/25 09:57:23;;;;;;;12.45;7.18;;;7.50;14.10;;;;;;7365362;19;20470;-71
2022/11/25 10:00:05;;;;;;;11.20;7.70;;;7.60;13.80;;;;;;7361024;19;20539;-70
2022/11/25 10:02:42;;;;;;;27.10;12.27;;;7.70;12.90;;;;;;7359576;19;20019;-71
2022/11/25 10:05:19;;;;;;;11.27;7.55;;;7.90;10.80;;;;;;7365346;19;20070;-69
2022/11/25 10:07:54;;;;;;;15.27;6.90;;;7.90;10.00;;;;;;7365626;19;20512;-70
2022/11/25 10:10:25;;;;;;;;;;;7.90;9.60;;;;;;7355391;19;20078;-69
2022/11/25 10:12:57;;;;;;;17.98;7.55;;;8.00;11.10;;;;;;7364837;19;19925;-70
2022/11/25 10:15:31;;;;;;;14.18;7.40;;;8.00;11.20;;;;;;7387017;19;20058;-70
2022/11/25 10:18:08;;;;;;;17.30;7.63;;;8.00;11.00;;;;;;7364486;19;20046;-71
2022/11/25 10:20:42;;;;;;;13.48;6.63;;;8.00;9.90;;;;;;7355730;19;20745;-70
2022/11/25 10:23:17;;;;;;;11.38;7.05;;;8.10;8.70;;;;;;7363921;19;20016;-69
2022/11/25 10:25:58;;;;;;;13.23;6.55;;;8.00;9.50;;;;;;7364140;19;20006;-70
2022/11/25 10:28:35;;;;;;;12.18;7.40;;;8.20;10.10;;;;;;7363291;19;20011;-70
2022/11/25 10:31:12;;;;;;;14.13;6.35;;;8.10;8.00;;;;;;7355644;19;20023;-70
2022/11/25 10:33:48;;;;;;;12.32;6.95;;;8.10;7.90;;;;;;7385677;19;20018;-71
2022/11/25 10:36:21;;;;;;;12.82;6.95;;;8.10;9.10;;;;;;7362827;19;20017;-70
2022/11/25 10:38:58;;;;;;;12.75;7.03;;;8.00;9.50;;;;;;7363671;19;20029;-69
2022/11/25 10:41:30;;;;;;;13.20;6.38;;;8.10;9.40;;;;;;7355740;19;20468;-70
2022/11/25 10:44:00;;;;;;;15.30;6.95;;;8.00;9.60;;;;;;7365525;19;20373;-70
2022/11/25 10:46:39;;;;;;;9.70;6.80;;;8.10;9.80;;;;;;7364825;19;20018;-71
2022/11/25 10:49:37;;;;;;;13.02;6.32;;;8.00;9.70;;;;;;7359827;19;20036;-71
2022/11/25 10:52:12;;;;;;;9.55;6.38;;;8.00;9.50;;;;;;7354976;19;20010;-71
2022/11/25 10:54:42;;;;;;;12.48;5.82;;;8.10;9.40;;;;;;7384413;19;20484;-71
2022/11/25 10:57:20;;;;;;;9.15;5.47;;;8.00;8.80;;;;;;7363034;19;20481;-71
2022/11/25 10:59:57;;;;;;;13.68;6.43;;;8.10;9.50;;;;;;7359913;19;20014;-69
2022/11/25 11:02:30;;;;;;;11.65;6.60;;;8.20;9.20;;;;;;7359100;19;20014;-70
2022/11/25 11:05:06;;;;;;;13.32;7.22;;;8.20;8.40;;;;;;7363270;19;20014;-70
2022/11/25 11:07:37;;;;;;;12.88;6.45;;;8.30;9.10;;;;;;7364434;19;20015;-70
2022/11/25 11:10:20;;;;;;;13.13;7.80;;;8.30;8.50;;;;;;7355851;19;20323;-70
2022/11/25 11:12:59;;;;;;;16.00;7.95;;;8.50;8.80;;;;;;7361038;19;20526;-70
2022/11/25 11:15:30;;;;;;;12.70;6.03;;;8.60;7.60;;;;;;7384147;19;20050;-71
2022/11/25 11:18:02;;;;;;;13.50;7.05;;;8.50;8.10;;;;;;7363039;19;20113;-69
2022/11/25 11:20:35;;;;;;;12.95;8.40;;;8.40;10.90;;;;;;7354482;19;20013;-70
2022/11/25 11:23:12;;;;;;;16.10;8.93;;;8.30;14.30;;;;;;7360221;19;20105;-71
2022/11/25 11:25:44;;;;;;;14.70;9.25;;;8.10;17.00;;;;;;7363058;19;20013;-70
2022/11/25 11:28:31;;;;;;;15.73;9.40;;;8.00;19.30;;;;;;7362745;19;20398;-70
2022/11/25 11:31:05;;;;;;;14.55;9.32;;;7.90;22.10;;;;;;7351646;19;20017;-69
2022/11/25 11:33:39;;;;;;;16.45;8.57;;;7.70;25.30;;;;;;7383877;19;20014;-70
2022/11/25 11:36:28;;;;;;;17.50;10.40;;;7.60;27.00;;;;;;7361112;19;20477;-73
2022/11/25 11:39:19;;;;;;;16.75;9.80;;;7.50;29.50;;;;;;7353331;19;20014;-70
2022/11/25 11:41:55;;;;;;;16.95;8.68;;;7.40;31.10;;;;;;7351899;19;20450;-70
2022/11/25 11:44:35;;;;;;;15.27;8.07;;;7.50;32.90;;;;;;7360861;19;20006;-71
2022/11/25 11:47:16;;;;;;;17.42;9.40;;;7.40;32.00;;;;;;7362974;19;20010;-70
2022/11/25 11:50:22;;;;;;;12.57;7.70;;;7.50;33.70;;;;;;7359939;19;20007;-70
2022/11/25 11:52:57;;;;;;;;;;;7.40;33.20;;;;;;7362498;19;20021;-70
2022/11/25 11:55:41;;;;;;;13.30;6.80;;;7.50;33.70;;;;;;7364255;19;19911;-69
2022/11/25 11:58:23;;;;;;;19.15;9.38;;;7.50;33.30;;;;;;7363499;19;20011;-70
2022/11/25 12:01:16;;;;;;;26.52;14.43;;;7.70;36.30;;;;;;7354264;19;20458;-71
2022/11/25 12:03:59;;;;;;;11.85;6.60;;;7.90;35.30;;;;;;7362609;19;20501;-70
2022/11/25 12:06:35;;;;;;;16.15;6.88;;;7.70;33.30;;;;;;7384421;19;20387;-70
2022/11/25 12:09:15;;;;;;;12.65;5.63;;;7.70;34.00;;;;;;7359566;19;20031;-70
2022/11/25 12:11:54;;;;;;;12.48;5.35;;;7.80;34.90;;;;;;7355434;19;20074;-70
2022/11/25 12:14:34;;;;;;;11.75;5.82;;;7.80;33.80;;;;;;7362400;19;20018;-69
2022/11/25 12:17:09;;;;;;;9.23;4.95;;;7.80;33.90;;;;;;7362524;19;20007;-71
2022/11/25 12:19:46;;;;;;;17.27;5.10;;;7.70;33.10;;;;;;7362514;19;20115;-71
2022/11/25 12:22:23;;;;;;;11.00;5.93;;;7.60;32.90;;;;;;7353413;19;20433;-71
2022/11/25 12:25:03;;;;;;;11.27;5.20;;;7.70;35.20;;;;;;7358485;19;20014;-70
2022/11/25 12:27:38;;;;;;;10.85;4.47;;;7.70;35.60;;;;;;7382626;19;20379;-69
2022/11/25 12:30:13;;;;;;;9.98;4.05;;;7.70;35.00;;;;;;7358510;19;20017;-71
2022/11/25 12:32:52;;;;;;;8.50;4.13;;;7.60;34.10;;;;;;7356900;19;20006;-71
2022/11/25 12:35:32;;;;;;;11.60;4.90;;;7.60;33.50;;;;;;7360123;19;20014;-71
2022/11/25 12:38:11;;;;;;;9.77;5.55;;;7.60;33.60;;;;;;7357773;19;20018;-71
2022/11/25 12:40:49;;;;;;;11.32;5.63;;;7.60;34.20;;;;;;7355410;19;20548;-70
2022/11/25 12:43:29;;;;;;;13.95;6.72;;;7.60;35.40;;;;;;7358233;19;20003;-70
2022/11/25 12:46:08;;;;;;;13.60;8.80;;;7.60;34.80;;;;;;7360266;19;20499;-70
2022/11/25 12:48:42;;;;;;;11.73;6.30;;;7.60;36.00;;;;;;7381130;19;20091;-70
2022/11/25 12:51:25;;;;;;;11.47;5.77;;;7.50;33.90;;;;;;7350119;19;20014;-71
2022/11/25 12:54:05;;;;;;;11.38;5.53;;;7.50;33.70;;;;;;7359108;19;20010;-70
2022/11/25 12:56:51;;;;;;;11.40;5.88;;;7.60;34.50;;;;;;7357578;19;20018;-70
2022/11/25 12:59:37;;;;;;;16.60;9.10;;;7.60;34.60;;;;;;7357071;19;20014;-69
2022/11/25 13:02:30;;;;;;;19.17;6.80;;;7.60;34.80;;;;;;7351860;19;20011;-72
2022/11/25 13:05:14;;;;;;;16.77;7.28;;;7.70;33.10;;;;;;7358330;19;20038;-70
2022/11/25 13:08:20;;;;;;;12.00;6.68;;;7.70;33.30;;;;;;7358026;19;20114;-70
2022/11/25 13:11:03;;;;;;;12.95;7.25;;;7.80;33.80;;;;;;7352810;19;20481;-71
2022/11/25 13:13:47;;;;;;;14.20;6.77;;;7.80;33.40;;;;;;7354995;19;20593;-68
2022/11/25 13:16:19;;;;;;;16.33;7.22;;;7.90;33.40;;;;;;7357401;19;20118;-71
2022/11/25 13:18:50;;;;;;;11.25;6.93;;;8.00;32.60;;;;;;7361263;19;20014;-70
2022/11/25 13:21:22;;;;;;;12.48;6.43;;;8.00;32.50;;;;;;7373946;19;20073;-68
2022/11/25 13:23:55;;;;;;;15.75;7.82;;;8.00;32.00;;;;;;7357395;19;20017;-70
2022/11/25 13:26:49;;;;;;;10.85;5.32;;;8.10;32.10;;;;;;7357828;19;20043;-69
2022/11/25 13:30:04;;;;;;;9.07;5.28;;;8.30;31.90;;;;;;7358099;19;20035;-69